フランクフルト の空港の天気 - METARとTAF

フランクフルト国際空港 ( EDDF / FRA ) - ドイツ フランクフルト・アム・マイン
飛行場実況気象(Metar)
観測時間06/17 21:20 CEST (06/17 19:20 UTC)
風向・風速南東 2m/s
視程10km以上
天気現象
なし
気温24℃
湿度47%
気圧1017hPa
METAREDDF 171920Z 14004KT CAVOK 24/12 Q1017 NOSIG
過去の天気等 Google飛行場航空写真 Wunderground天気予報

過去48時間のMETAR

飛行場予報(TAF)
発表時間: 6/17 19:00 CEST (6/17 17:00 UTC)
予報対象時間: 17日20時 CEST ~ 19日2時 CEST
風向・風速東 4m/s
視程10km以上
なし
17日20時 CEST ~ 17日22時 CEST に徐々に
風向・風速北東 2m/s
18日7時 CEST ~ 18日9時 CEST に徐々に
風向・風速東 3m/s
18日13時 CEST ~ 18日15時 CEST に徐々に
風向・風速南 3m/s
18日19時 CEST ~ 18日21時 CEST に徐々に
風向・風速不定 2m/s
TAF EDDF 171700Z 1718/1824 10008KT CAVOK
BECMG 1718/1720 04004KT
BECMG 1805/1807 10005KT
BECMG 1811/1813 17006KT
BECMG 1817/1819 VRB03KT